Main page
METAR-TAF:

METAR-TAF

Airports :

Bamako–Modibo Keïta International Airport

Bamako, Mali

latitude: 12-32N, longitude: 007-57W, elevation: 380 m

Current weather observation

The report was made 44 minutes ago, at 22:30 UTC
Wind 6 kt from the West
Temperature 27°C
Humidity 89%
Pressure 1014 hPa
Visibility 10 km or more
Few clouds at a height of 2000 ft

METAR: GABS 092230Z 26006KT 9999 FEW020 27/25 Q1014 NOSIG

Time: 23:14 (23:14 UTC)

Forecast

The report was made 6 hours and 14 minutes ago, at 17:00 UTC
Forecast valid from 09 at 18 UTC to 10 at 24 UTC
Wind 6 kt from the West/Southwest
Visibility 10 km or more
Few clouds at a height of 2000 ft
Temporary
from 09 at 23 UTC to 10 at 08 UTC
Wind 18 kt from the East with gusts up to 30 kt
Visibility: 1500 m
Broken clouds at a height of 1600 ft
Scattered clouds at a height of 2500 ft, Cumulonimbus.
thunderstorm, rain, Blowing dust, squalls

TAF: GABS 091700Z 0918/1024 24006KT 9999 FEW020 TEMPO 0923/1008 08018G30KT 1500 TSRA BLDU SQ BKN016 SCT025CB

Weather observations and forecasts of more than 4000 airports (METAR and TAF reports).

The available stations are represented by yellow and red dots on the map.

Hover mouse over dot to see the name of the station.

Then click to see weather observations and forecasts.

To change the map : click on the green buttons with a black cross to zoom in, on the green button with a dash to zoom out, or on the green arrows for adjacent maps.


METAR-TAF: